sensor_id;sensor_type;location;lat;lon;timestamp;temperature;humidity
52859;DHT22;38721;53.098;6.596;2022-09-29T00:01:48;6.50;99.90
52859;DHT22;38721;53.098;6.596;2022-09-29T00:04:14;6.40;99.90
52859;DHT22;38721;53.098;6.596;2022-09-29T00:06:39;6.50;99.90
52859;DHT22;38721;53.098;6.596;2022-09-29T00:09:05;6.40;99.90
52859;DHT22;38721;53.098;6.596;2022-09-29T00:11:31;6.40;99.90
52859;DHT22;38721;53.098;6.596;2022-09-29T00:13:56;6.40;99.90
52859;DHT22;38721;53.098;6.596;2022-09-29T00:16:23;6.40;99.90
52859;DHT22;38721;53.098;6.596;2022-09-29T00:18:48;6.50;99.90
52859;DHT22;38721;53.098;6.596;2022-09-29T00:21:16;6.40;99.90
52859;DHT22;38721;53.098;6.596;2022-09-29T00:23:44;6.50;99.90
52859;DHT22;38721;53.098;6.596;2022-09-29T00:26:15;6.40;99.90
52859;DHT22;38721;53.098;6.596;2022-09-29T00:28:53;6.40;99.90
52859;DHT22;38721;53.098;6.596;2022-09-29T00:31:20;6.40;99.90
52859;DHT22;38721;53.098;6.596;2022-09-29T00:33:46;6.40;99.90
52859;DHT22;38721;53.098;6.596;2022-09-29T00:36:14;6.40;99.90
52859;DHT22;38721;53.098;6.596;2022-09-29T00:38:42;6.20;99.90
52859;DHT22;38721;53.098;6.596;2022-09-29T00:41:14;6.40;99.90
52859;DHT22;38721;53.098;6.596;2022-09-29T00:44:00;6.30;99.90
52859;DHT22;38721;53.098;6.596;2022-09-29T00:46:37;6.20;99.90
52859;DHT22;38721;53.098;6.596;2022-09-29T00:49:14;6.20;99.90
52859;DHT22;38721;53.098;6.596;2022-09-29T00:54:18;6.30;99.90
52859;DHT22;38721;53.098;6.596;2022-09-29T00:56:45;6.20;99.90
52859;DHT22;38721;53.098;6.596;2022-09-29T00:59:17;6.20;99.90
52859;DHT22;38721;53.098;6.596;2022-09-29T01:01:47;6.20;99.90
52859;DHT22;38721;53.098;6.596;2022-09-29T01:04:16;6.20;99.90
52859;DHT22;38721;53.098;6.596;2022-09-29T01:06:49;6.30;99.90
52859;DHT22;38721;53.098;6.596;2022-09-29T01:09:19;5.90;99.90
52859;DHT22;38721;53.098;6.596;2022-09-29T01:11:45;6.00;99.90
52859;DHT22;38721;53.098;6.596;2022-09-29T01:14:12;5.90;99.90
52859;DHT22;38721;53.098;6.596;2022-09-29T01:16:38;5.90;99.90
52859;DHT22;38721;53.098;6.596;2022-09-29T01:22:23;5.90;99.90
52859;DHT22;38721;53.098;6.596;2022-09-29T01:33:26;5.90;99.90
52859;DHT22;38721;53.098;6.596;2022-09-29T01:36:24;6.00;99.90
52859;DHT22;38721;53.098;6.596;2022-09-29T01:41:45;5.90;99.90
52859;DHT22;38721;53.098;6.596;2022-09-29T01:44:22;6.10;99.90
52859;DHT22;38721;53.098;6.596;2022-09-29T01:47:08;6.10;99.90
52859;DHT22;38721;53.098;6.596;2022-09-29T01:49:40;5.90;99.90
52859;DHT22;38721;53.098;6.596;2022-09-29T01:52:14;6.00;99.90
52859;DHT22;38721;53.098;6.596;2022-09-29T01:54:58;5.90;99.90
52859;DHT22;38721;53.098;6.596;2022-09-29T01:57:30;5.80;99.90
52859;DHT22;38721;53.098;6.596;2022-09-29T02:00:08;5.80;99.90
52859;DHT22;38721;53.098;6.596;2022-09-29T02:02:56;5.80;99.90
52859;DHT22;38721;53.098;6.596;2022-09-29T02:05:30;5.90;99.90
52859;DHT22;38721;53.098;6.596;2022-09-29T02:08:06;5.80;99.90
52859;DHT22;38721;53.098;6.596;2022-09-29T02:10:39;5.80;99.90
52859;DHT22;38721;53.098;6.596;2022-09-29T02:13:06;5.80;99.90
52859;DHT22;38721;53.098;6.596;2022-09-29T02:15:38;5.80;99.90
52859;DHT22;38721;53.098;6.596;2022-09-29T02:18:12;6.00;99.90
52859;DHT22;38721;53.098;6.596;2022-09-29T02:20:40;6.00;99.90
52859;DHT22;38721;53.098;6.596;2022-09-29T02:23:06;5.90;99.90
52859;DHT22;38721;53.098;6.596;2022-09-29T02:25:35;5.90;99.90
52859;DHT22;38721;53.098;6.596;2022-09-29T02:28:03;6.00;99.90
52859;DHT22;38721;53.098;6.596;2022-09-29T02:30:29;6.00;99.90
52859;DHT22;38721;53.098;6.596;2022-09-29T02:32:55;5.90;99.90
52859;DHT22;38721;53.098;6.596;2022-09-29T02:35:20;5.80;99.90
52859;DHT22;38721;53.098;6.596;2022-09-29T02:37:50;5.80;99.90
52859;DHT22;38721;53.098;6.596;2022-09-29T02:40:35;5.90;99.90
52859;DHT22;38721;53.098;6.596;2022-09-29T02:51:36;5.70;99.90
52859;DHT22;38721;53.098;6.596;2022-09-29T02:54:13;5.60;99.90
52859;DHT22;38721;53.098;6.596;2022-09-29T02:59:36;5.60;99.90
52859;DHT22;38721;53.098;6.596;2022-09-29T03:02:04;5.60;99.90
52859;DHT22;38721;53.098;6.596;2022-09-29T03:04:30;5.60;99.90
52859;DHT22;38721;53.098;6.596;2022-09-29T03:06:56;5.50;99.90
52859;DHT22;38721;53.098;6.596;2022-09-29T03:09:21;5.50;99.90
52859;DHT22;38721;53.098;6.596;2022-09-29T03:11:47;5.50;99.90
52859;DHT22;38721;53.098;6.596;2022-09-29T03:14:13;5.50;99.90
52859;DHT22;38721;53.098;6.596;2022-09-29T03:16:38;5.50;99.90
52859;DHT22;38721;53.098;6.596;2022-09-29T03:19:04;5.40;99.90
52859;DHT22;38721;53.098;6.596;2022-09-29T03:21:32;5.50;99.90
52859;DHT22;38721;53.098;6.596;2022-09-29T03:23:57;5.50;99.90
52859;DHT22;38721;53.098;6.596;2022-09-29T03:26:23;5.50;99.90
52859;DHT22;38721;53.098;6.596;2022-09-29T03:28:50;5.60;99.90
52859;DHT22;38721;53.098;6.596;2022-09-29T03:31:16;5.60;99.90
52859;DHT22;38721;53.098;6.596;2022-09-29T03:33:42;5.40;99.90
52859;DHT22;38721;53.098;6.596;2022-09-29T03:36:08;5.40;99.90
52859;DHT22;38721;53.098;6.596;2022-09-29T03:38:34;5.40;99.90
52859;DHT22;38721;53.098;6.596;2022-09-29T03:41:00;5.40;99.90
52859;DHT22;38721;53.098;6.596;2022-09-29T03:43:26;5.40;99.90
52859;DHT22;38721;53.098;6.596;2022-09-29T03:45:53;5.50;99.90
52859;DHT22;38721;53.098;6.596;2022-09-29T03:48:20;5.40;99.90
52859;DHT22;38721;53.098;6.596;2022-09-29T03:50:47;5.40;99.90
52859;DHT22;38721;53.098;6.596;2022-09-29T03:53:13;5.30;99.90
52859;DHT22;38721;53.098;6.596;2022-09-29T03:55:40;5.20;99.90
52859;DHT22;38721;53.098;6.596;2022-09-29T03:58:06;5.30;99.90
52859;DHT22;38721;53.098;6.596;2022-09-29T04:00:32;5.00;99.90
52859;DHT22;38721;53.098;6.596;2022-09-29T04:02:57;5.00;99.90
52859;DHT22;38721;53.098;6.596;2022-09-29T04:05:24;5.00;99.90
52859;DHT22;38721;53.098;6.596;2022-09-29T04:07:49;5.10;99.90
52859;DHT22;38721;53.098;6.596;2022-09-29T04:10:15;5.10;99.90
52859;DHT22;38721;53.098;6.596;2022-09-29T04:12:41;5.10;99.90
52859;DHT22;38721;53.098;6.596;2022-09-29T04:15:07;5.10;99.90
52859;DHT22;38721;53.098;6.596;2022-09-29T04:17:33;5.00;99.90
52859;DHT22;38721;53.098;6.596;2022-09-29T04:19:59;5.10;99.90
52859;DHT22;38721;53.098;6.596;2022-09-29T04:22:24;5.10;99.90
52859;DHT22;38721;53.098;6.596;2022-09-29T04:24:50;5.00;99.90
52859;DHT22;38721;53.098;6.596;2022-09-29T04:27:17;5.10;99.90
52859;DHT22;38721;53.098;6.596;2022-09-29T04:29:43;5.00;99.90
52859;DHT22;38721;53.098;6.596;2022-09-29T04:32:09;5.00;99.90
52859;DHT22;38721;53.098;6.596;2022-09-29T04:34:35;5.00;99.90
52859;DHT22;38721;53.098;6.596;2022-09-29T04:37:06;5.00;99.90
52859;DHT22;38721;53.098;6.596;2022-09-29T04:39:35;5.00;99.90
52859;DHT22;38721;53.098;6.596;2022-09-29T04:42:01;5.00;99.90
52859;DHT22;38721;53.098;6.596;2022-09-29T04:44:27;5.10;99.90
52859;DHT22;38721;53.098;6.596;2022-09-29T04:46:53;5.00;99.90
52859;DHT22;38721;53.098;6.596;2022-09-29T04:49:19;5.10;99.90
52859;DHT22;38721;53.098;6.596;2022-09-29T04:51:45;5.00;99.90
52859;DHT22;38721;53.098;6.596;2022-09-29T04:54:10;4.90;99.90
52859;DHT22;38721;53.098;6.596;2022-09-29T04:56:36;5.10;99.90
52859;DHT22;38721;53.098;6.596;2022-09-29T04:59:02;5.00;99.90
52859;DHT22;38721;53.098;6.596;2022-09-29T05:01:30;5.10;99.90
52859;DHT22;38721;53.098;6.596;2022-09-29T05:03:56;5.10;99.90
52859;DHT22;38721;53.098;6.596;2022-09-29T05:06:22;5.20;99.90
52859;DHT22;38721;53.098;6.596;2022-09-29T05:08:47;5.00;99.90
52859;DHT22;38721;53.098;6.596;2022-09-29T05:11:13;5.10;99.90
52859;DHT22;38721;53.098;6.596;2022-09-29T05:13:39;5.10;99.90
52859;DHT22;38721;53.098;6.596;2022-09-29T05:16:05;5.20;99.90
52859;DHT22;38721;53.098;6.596;2022-09-29T05:18:31;5.20;99.90
52859;DHT22;38721;53.098;6.596;2022-09-29T05:21:07;5.10;99.90
52859;DHT22;38721;53.098;6.596;2022-09-29T05:23:33;5.10;99.90
52859;DHT22;38721;53.098;6.596;2022-09-29T05:26:06;5.10;99.90
52859;DHT22;38721;53.098;6.596;2022-09-29T05:28:35;5.20;99.90
52859;DHT22;38721;53.098;6.596;2022-09-29T05:31:06;5.10;99.90
52859;DHT22;38721;53.098;6.596;2022-09-29T05:33:35;5.20;99.90
52859;DHT22;38721;53.098;6.596;2022-09-29T05:36:04;5.20;99.90
52859;DHT22;38721;53.098;6.596;2022-09-29T05:38:34;5.10;99.90
52859;DHT22;38721;53.098;6.596;2022-09-29T05:41:08;5.10;99.90
52859;DHT22;38721;53.098;6.596;2022-09-29T05:43:35;5.00;99.90
52859;DHT22;38721;53.098;6.596;2022-09-29T05:46:02;5.10;99.90
52859;DHT22;38721;53.098;6.596;2022-09-29T05:48:31;5.10;99.90
52859;DHT22;38721;53.098;6.596;2022-09-29T05:50:58;5.10;99.90
52859;DHT22;38721;53.098;6.596;2022-09-29T05:53:25;5.10;99.90
52859;DHT22;38721;53.098;6.596;2022-09-29T05:55:51;5.00;99.90
52859;DHT22;38721;53.098;6.596;2022-09-29T05:58:17;5.10;99.90
52859;DHT22;38721;53.098;6.596;2022-09-29T06:00:43;5.20;99.90
52859;DHT22;38721;53.098;6.596;2022-09-29T06:03:09;5.10;99.90
52859;DHT22;38721;53.098;6.596;2022-09-29T06:05:38;5.20;99.90
52859;DHT22;38721;53.098;6.596;2022-09-29T06:08:04;5.20;99.90
52859;DHT22;38721;53.098;6.596;2022-09-29T06:10:30;5.30;99.90
52859;DHT22;38721;53.098;6.596;2022-09-29T06:12:56;5.30;99.90
52859;DHT22;38721;53.098;6.596;2022-09-29T06:15:22;5.30;99.90
52859;DHT22;38721;53.098;6.596;2022-09-29T06:17:57;5.40;99.90
52859;DHT22;38721;53.098;6.596;2022-09-29T06:20:24;5.60;99.90
52859;DHT22;38721;53.098;6.596;2022-09-29T06:22:54;5.60;99.90
52859;DHT22;38721;53.098;6.596;2022-09-29T06:25:21;5.80;99.90
52859;DHT22;38721;53.098;6.596;2022-09-29T06:27:47;5.80;99.90
52859;DHT22;38721;53.098;6.596;2022-09-29T06:30:13;5.80;99.90
52859;DHT22;38721;53.098;6.596;2022-09-29T06:32:39;5.70;99.90
52859;DHT22;38721;53.098;6.596;2022-09-29T06:35:05;5.80;99.90
52859;DHT22;38721;53.098;6.596;2022-09-29T06:37:53;5.80;99.90
52859;DHT22;38721;53.098;6.596;2022-09-29T06:40:21;5.80;99.90
52859;DHT22;38721;53.098;6.596;2022-09-29T06:42:47;5.80;99.90
52859;DHT22;38721;53.098;6.596;2022-09-29T06:45:14;5.90;99.90
52859;DHT22;38721;53.098;6.596;2022-09-29T06:47:40;5.90;99.90
52859;DHT22;38721;53.098;6.596;2022-09-29T06:50:05;5.90;99.90
52859;DHT22;38721;53.098;6.596;2022-09-29T06:52:31;6.00;99.90
52859;DHT22;38721;53.098;6.596;2022-09-29T06:54:57;6.10;99.90
52859;DHT22;38721;53.098;6.596;2022-09-29T06:57:22;6.30;99.90
52859;DHT22;38721;53.098;6.596;2022-09-29T06:59:49;6.40;99.90
52859;DHT22;38721;53.098;6.596;2022-09-29T07:02:14;6.30;99.90
52859;DHT22;38721;53.098;6.596;2022-09-29T07:04:40;6.60;99.90
52859;DHT22;38721;53.098;6.596;2022-09-29T07:07:06;6.70;99.90
52859;DHT22;38721;53.098;6.596;2022-09-29T07:09:32;6.90;99.90
52859;DHT22;38721;53.098;6.596;2022-09-29T07:12:00;6.90;99.90
52859;DHT22;38721;53.098;6.596;2022-09-29T07:14:26;7.00;99.90
52859;DHT22;38721;53.098;6.596;2022-09-29T07:16:52;7.10;99.90
52859;DHT22;38721;53.098;6.596;2022-09-29T07:19:18;7.20;99.90
52859;DHT22;38721;53.098;6.596;2022-09-29T07:21:45;7.30;99.90
52859;DHT22;38721;53.098;6.596;2022-09-29T07:24:11;7.40;99.90
52859;DHT22;38721;53.098;6.596;2022-09-29T07:26:37;7.50;99.90
52859;DHT22;38721;53.098;6.596;2022-09-29T07:29:03;7.60;99.90
52859;DHT22;38721;53.098;6.596;2022-09-29T07:31:28;7.70;99.90
52859;DHT22;38721;53.098;6.596;2022-09-29T07:33:55;7.80;99.90
52859;DHT22;38721;53.098;6.596;2022-09-29T07:36:21;8.00;99.90
52859;DHT22;38721;53.098;6.596;2022-09-29T07:38:48;8.20;99.90
52859;DHT22;38721;53.098;6.596;2022-09-29T07:41:14;8.20;99.90
52859;DHT22;38721;53.098;6.596;2022-09-29T07:43:41;8.40;99.90
52859;DHT22;38721;53.098;6.596;2022-09-29T07:46:07;8.50;99.90
52859;DHT22;38721;53.098;6.596;2022-09-29T07:48:34;8.60;99.90
52859;DHT22;38721;53.098;6.596;2022-09-29T07:51:18;8.70;99.90
52859;DHT22;38721;53.098;6.596;2022-09-29T07:53:44;8.90;99.90
52859;DHT22;38721;53.098;6.596;2022-09-29T07:56:19;9.00;99.90
52859;DHT22;38721;53.098;6.596;2022-09-29T07:58:46;9.10;99.90
52859;DHT22;38721;53.098;6.596;2022-09-29T08:01:13;9.20;99.90
52859;DHT22;38721;53.098;6.596;2022-09-29T08:03:47;9.40;99.90
52859;DHT22;38721;53.098;6.596;2022-09-29T08:06:13;9.60;99.90
52859;DHT22;38721;53.098;6.596;2022-09-29T08:08:40;9.70;99.90
52859;DHT22;38721;53.098;6.596;2022-09-29T08:11:10;9.80;99.90
52859;DHT22;38721;53.098;6.596;2022-09-29T08:13:36;9.90;99.90
52859;DHT22;38721;53.098;6.596;2022-09-29T08:16:07;9.90;99.90
52859;DHT22;38721;53.098;6.596;2022-09-29T08:18:35;10.10;99.90
52859;DHT22;38721;53.098;6.596;2022-09-29T08:21:02;10.10;99.90
52859;DHT22;38721;53.098;6.596;2022-09-29T08:23:28;10.30;99.90
52859;DHT22;38721;53.098;6.596;2022-09-29T08:26:00;10.40;99.90
52859;DHT22;38721;53.098;6.596;2022-09-29T08:28:31;10.50;99.90
52859;DHT22;38721;53.098;6.596;2022-09-29T08:31:01;10.60;99.90
52859;DHT22;38721;53.098;6.596;2022-09-29T08:33:27;10.60;99.90
52859;DHT22;38721;53.098;6.596;2022-09-29T08:35:56;10.70;99.90
52859;DHT22;38721;53.098;6.596;2022-09-29T08:38:23;10.80;99.90
52859;DHT22;38721;53.098;6.596;2022-09-29T08:40:49;10.90;99.90
52859;DHT22;38721;53.098;6.596;2022-09-29T08:43:48;11.20;99.90
52859;DHT22;38721;53.098;6.596;2022-09-29T08:46:27;11.20;99.90
52859;DHT22;38721;53.098;6.596;2022-09-29T08:48:56;11.20;99.90
52859;DHT22;38721;53.098;6.596;2022-09-29T08:51:37;11.40;99.90
52859;DHT22;38721;53.098;6.596;2022-09-29T08:54:14;11.50;99.90
52859;DHT22;38721;53.098;6.596;2022-09-29T08:56:41;11.60;99.90
52859;DHT22;38721;53.098;6.596;2022-09-29T08:59:09;11.80;99.90
52859;DHT22;38721;53.098;6.596;2022-09-29T09:10:03;12.10;99.90
52859;DHT22;38721;53.098;6.596;2022-09-29T09:15:22;12.10;99.90
52859;DHT22;38721;53.098;6.596;2022-09-29T09:20:58;12.20;99.90
52859;DHT22;38721;53.098;6.596;2022-09-29T09:26:07;12.40;99.90
52859;DHT22;38721;53.098;6.596;2022-09-29T09:28:44;12.40;99.90
52859;DHT22;38721;53.098;6.596;2022-09-29T09:31:17;12.50;99.90
52859;DHT22;38721;53.098;6.596;2022-09-29T09:33:57;12.50;99.90
52859;DHT22;38721;53.098;6.596;2022-09-29T09:36:35;12.60;99.90
52859;DHT22;38721;53.098;6.596;2022-09-29T09:39:27;12.70;99.90
52859;DHT22;38721;53.098;6.596;2022-09-29T09:41:52;12.80;99.90
52859;DHT22;38721;53.098;6.596;2022-09-29T09:44:29;12.90;99.90
52859;DHT22;38721;53.098;6.596;2022-09-29T09:49:44;13.00;99.90
52859;DHT22;38721;53.098;6.596;2022-09-29T09:52:30;13.10;99.90
52859;DHT22;38721;53.098;6.596;2022-09-29T09:54:59;13.20;99.90
52859;DHT22;38721;53.098;6.596;2022-09-29T09:57:42;13.40;99.90
52859;DHT22;38721;53.098;6.596;2022-09-29T10:02:47;13.40;99.90
52859;DHT22;38721;53.098;6.596;2022-09-29T10:05:16;13.40;99.90
52859;DHT22;38721;53.098;6.596;2022-09-29T10:07:43;13.50;99.90
52859;DHT22;38721;53.098;6.596;2022-09-29T10:10:20;13.60;99.90
52859;DHT22;38721;53.098;6.596;2022-09-29T10:13:04;13.80;99.90
52859;DHT22;38721;53.098;6.596;2022-09-29T10:15:54;13.80;99.90
52859;DHT22;38721;53.098;6.596;2022-09-29T10:20:52;14.10;99.90
52859;DHT22;38721;53.098;6.596;2022-09-29T10:28:18;14.30;1.00
52859;DHT22;38721;53.098;6.596;2022-09-29T10:30:44;14.40;99.90
52859;DHT22;38721;53.098;6.596;2022-09-29T10:33:15;14.40;99.90
52859;DHT22;38721;53.098;6.596;2022-09-29T10:35:46;14.50;99.90
52859;DHT22;38721;53.098;6.596;2022-09-29T10:38:17;14.40;24.10
52859;DHT22;38721;53.098;6.596;2022-09-29T10:40:59;14.40;99.90
52859;DHT22;38721;53.098;6.596;2022-09-29T10:43:38;14.60;99.90
52859;DHT22;38721;53.098;6.596;2022-09-29T10:51:55;14.90;99.90
52859;DHT22;38721;53.098;6.596;2022-09-29T10:54:24;15.10;1.00
52859;DHT22;38721;53.098;6.596;2022-09-29T10:56:54;15.10;1.00
52859;DHT22;38721;53.098;6.596;2022-09-29T10:59:27;15.30;1.00
52859;DHT22;38721;53.098;6.596;2022-09-29T11:01:56;15.30;99.90
52859;DHT22;38721;53.098;6.596;2022-09-29T11:04:34;15.40;59.90
52859;DHT22;38721;53.098;6.596;2022-09-29T11:07:06;15.40;34.40
52859;DHT22;38721;53.098;6.596;2022-09-29T11:09:43;15.60;1.00
52859;DHT22;38721;53.098;6.596;2022-09-29T11:12:32;15.70;18.80
52859;DHT22;38721;53.098;6.596;2022-09-29T11:15:00;15.50;99.90
52859;DHT22;38721;53.098;6.596;2022-09-29T11:17:28;15.60;1.00
52859;DHT22;38721;53.098;6.596;2022-09-29T11:20:00;15.60;1.00
52859;DHT22;38721;53.098;6.596;2022-09-29T11:31:22;15.40;99.90
52859;DHT22;38721;53.098;6.596;2022-09-29T11:34:11;15.30;99.90
52859;DHT22;38721;53.098;6.596;2022-09-29T11:39:21;16.50;99.90
52859;DHT22;38721;53.098;6.596;2022-09-29T11:45:00;16.90;99.90
52859;DHT22;38721;53.098;6.596;2022-09-29T11:57:53;15.50;99.90
52859;DHT22;38721;53.098;6.596;2022-09-29T12:00:22;15.50;97.30
52859;DHT22;38721;53.098;6.596;2022-09-29T12:06:08;15.60;1.00
52859;DHT22;38721;53.098;6.596;2022-09-29T12:11:19;15.70;1.00
52859;DHT22;38721;53.098;6.596;2022-09-29T12:14:05;16.50;99.90
52859;DHT22;38721;53.098;6.596;2022-09-29T12:16:34;17.00;99.90
52859;DHT22;38721;53.098;6.596;2022-09-29T12:19:07;17.10;99.90
52859;DHT22;38721;53.098;6.596;2022-09-29T12:21:38;17.40;68.20
52859;DHT22;38721;53.098;6.596;2022-09-29T12:24:17;16.90;99.90
52859;DHT22;38721;53.098;6.596;2022-09-29T12:26:46;16.70;23.20
52859;DHT22;38721;53.098;6.596;2022-09-29T12:32:04;16.20;99.90
52859;DHT22;38721;53.098;6.596;2022-09-29T12:34:56;16.10;49.60
52859;DHT22;38721;53.098;6.596;2022-09-29T12:37:40;16.50;1.00
52859;DHT22;38721;53.098;6.596;2022-09-29T12:40:24;16.50;99.90
52859;DHT22;38721;53.098;6.596;2022-09-29T12:43:11;16.20;99.90
52859;DHT22;38721;53.098;6.596;2022-09-29T12:45:43;15.90;64.90
52859;DHT22;38721;53.098;6.596;2022-09-29T12:48:45;15.90;99.90
52859;DHT22;38721;53.098;6.596;2022-09-29T12:51:46;15.80;1.00
52859;DHT22;38721;53.098;6.596;2022-09-29T12:57:08;16.10;1.00
52859;DHT22;38721;53.098;6.596;2022-09-29T12:59:46;17.30;12.20
52859;DHT22;38721;53.098;6.596;2022-09-29T13:08:10;16.70;99.90
52859;DHT22;38721;53.098;6.596;2022-09-29T13:16:38;15.70;20.90
52859;DHT22;38721;53.098;6.596;2022-09-29T13:19:20;15.50;99.90
52859;DHT22;38721;53.098;6.596;2022-09-29T13:25:10;15.50;92.70
52859;DHT22;38721;53.098;6.596;2022-09-29T13:27:43;15.50;1.00
52859;DHT22;38721;53.098;6.596;2022-09-29T13:33:09;15.20;99.90
52859;DHT22;38721;53.098;6.596;2022-09-29T13:35:40;15.10;99.90
52859;DHT22;38721;53.098;6.596;2022-09-29T13:38:18;15.00;36.90
52859;DHT22;38721;53.098;6.596;2022-09-29T13:51:48;15.00;1.00
52859;DHT22;38721;53.098;6.596;2022-09-29T13:57:22;14.80;99.90
52859;DHT22;38721;53.098;6.596;2022-09-29T14:02:34;14.90;99.90
52859;DHT22;38721;53.098;6.596;2022-09-29T14:05:03;14.90;99.90
52859;DHT22;38721;53.098;6.596;2022-09-29T14:07:45;14.90;99.90
52859;DHT22;38721;53.098;6.596;2022-09-29T14:13:02;14.80;99.90
52859;DHT22;38721;53.098;6.596;2022-09-29T14:18:55;14.80;1.00
52859;DHT22;38721;53.098;6.596;2022-09-29T14:22:04;14.90;99.90
52859;DHT22;38721;53.098;6.596;2022-09-29T14:32:52;15.70;1.00
52859;DHT22;38721;53.098;6.596;2022-09-29T14:35:28;17.90;99.90
52859;DHT22;38721;53.098;6.596;2022-09-29T14:38:18;18.60;99.90
52859;DHT22;38721;53.098;6.596;2022-09-29T14:44:01;17.50;99.90
52859;DHT22;38721;53.098;6.596;2022-09-29T14:46:46;16.90;1.00
52859;DHT22;38721;53.098;6.596;2022-09-29T14:53:15;16.70;99.90
52859;DHT22;38721;53.098;6.596;2022-09-29T15:01:31;16.70;99.90
52859;DHT22;38721;53.098;6.596;2022-09-29T15:04:10;16.10;99.90
52859;DHT22;38721;53.098;6.596;2022-09-29T15:06:50;15.70;99.90
52859;DHT22;38721;53.098;6.596;2022-09-29T15:09:21;14.70;99.90
52859;DHT22;38721;53.098;6.596;2022-09-29T15:11:56;14.10;39.70
52859;DHT22;38721;53.098;6.596;2022-09-29T15:14:31;13.90;1.00
52859;DHT22;38721;53.098;6.596;2022-09-29T15:19:57;13.60;1.00
52859;DHT22;38721;53.098;6.596;2022-09-29T15:25:33;13.40;1.00
52859;DHT22;38721;53.098;6.596;2022-09-29T15:30:41;13.30;1.00
52859;DHT22;38721;53.098;6.596;2022-09-29T15:33:24;13.20;99.90
52859;DHT22;38721;53.098;6.596;2022-09-29T15:40:54;13.20;1.00
52859;DHT22;38721;53.098;6.596;2022-09-29T15:43:29;13.20;99.90
52859;DHT22;38721;53.098;6.596;2022-09-29T15:45:59;13.30;99.90
52859;DHT22;38721;53.098;6.596;2022-09-29T15:48:26;13.20;99.90
52859;DHT22;38721;53.098;6.596;2022-09-29T15:50:53;13.00;99.90
52859;DHT22;38721;53.098;6.596;2022-09-29T15:53:21;13.10;99.90
52859;DHT22;38721;53.098;6.596;2022-09-29T15:55:49;13.10;99.90
52859;DHT22;38721;53.098;6.596;2022-09-29T16:01:01;13.10;99.90
52859;DHT22;38721;53.098;6.596;2022-09-29T16:03:54;13.20;99.90
52859;DHT22;38721;53.098;6.596;2022-09-29T16:06:29;13.50;99.90
52859;DHT22;38721;53.098;6.596;2022-09-29T16:09:02;13.40;99.90
52859;DHT22;38721;53.098;6.596;2022-09-29T16:11:34;13.40;99.90
52859;DHT22;38721;53.098;6.596;2022-09-29T16:14:13;13.40;99.90
52859;DHT22;38721;53.098;6.596;2022-09-29T16:16:44;13.50;99.90
52859;DHT22;38721;53.098;6.596;2022-09-29T16:21:56;13.50;99.90
52859;DHT22;38721;53.098;6.596;2022-09-29T16:24:25;13.40;99.90
52859;DHT22;38721;53.098;6.596;2022-09-29T16:26:54;13.30;99.90
52859;DHT22;38721;53.098;6.596;2022-09-29T16:29:34;13.30;99.90
52859;DHT22;38721;53.098;6.596;2022-09-29T16:35:35;13.20;99.90
52859;DHT22;38721;53.098;6.596;2022-09-29T16:38:13;13.20;99.90
52859;DHT22;38721;53.098;6.596;2022-09-29T16:40:40;13.10;99.90
52859;DHT22;38721;53.098;6.596;2022-09-29T16:45:49;13.00;99.90
52859;DHT22;38721;53.098;6.596;2022-09-29T16:48:15;13.00;99.90
52859;DHT22;38721;53.098;6.596;2022-09-29T16:50:46;13.00;99.90
52859;DHT22;38721;53.098;6.596;2022-09-29T16:53:27;12.90;99.90
52859;DHT22;38721;53.098;6.596;2022-09-29T16:56:04;12.80;99.90
52859;DHT22;38721;53.098;6.596;2022-09-29T16:58:30;12.80;99.90
52859;DHT22;38721;53.098;6.596;2022-09-29T17:00:56;12.70;99.90
52859;DHT22;38721;53.098;6.596;2022-09-29T17:03:22;12.60;99.90
52859;DHT22;38721;53.098;6.596;2022-09-29T17:05:48;12.50;99.90
52859;DHT22;38721;53.098;6.596;2022-09-29T17:08:22;12.40;99.90
52859;DHT22;38721;53.098;6.596;2022-09-29T17:10:50;12.40;99.90
52859;DHT22;38721;53.098;6.596;2022-09-29T17:13:17;12.30;99.90
52859;DHT22;38721;53.098;6.596;2022-09-29T17:15:46;12.30;99.90
52859;DHT22;38721;53.098;6.596;2022-09-29T17:18:17;12.30;99.90
52859;DHT22;38721;53.098;6.596;2022-09-29T17:20:43;12.20;99.90
52859;DHT22;38721;53.098;6.596;2022-09-29T17:23:09;12.10;99.90
52859;DHT22;38721;53.098;6.596;2022-09-29T17:25:38;12.10;99.90
52859;DHT22;38721;53.098;6.596;2022-09-29T17:28:17;12.10;99.90
52859;DHT22;38721;53.098;6.596;2022-09-29T17:30:45;12.00;99.90
52859;DHT22;38721;53.098;6.596;2022-09-29T17:33:13;12.00;99.90
52859;DHT22;38721;53.098;6.596;2022-09-29T17:35:43;11.90;99.90
52859;DHT22;38721;53.098;6.596;2022-09-29T17:38:12;11.80;99.90
52859;DHT22;38721;53.098;6.596;2022-09-29T17:40:59;11.80;99.90
52859;DHT22;38721;53.098;6.596;2022-09-29T17:43:30;11.70;99.90
52859;DHT22;38721;53.098;6.596;2022-09-29T17:45:56;11.60;99.90
52859;DHT22;38721;53.098;6.596;2022-09-29T17:48:23;11.60;99.90
52859;DHT22;38721;53.098;6.596;2022-09-29T17:50:50;11.60;99.90
52859;DHT22;38721;53.098;6.596;2022-09-29T17:53:17;11.50;99.90
52859;DHT22;38721;53.098;6.596;2022-09-29T17:55:46;11.40;99.90
52859;DHT22;38721;53.098;6.596;2022-09-29T17:58:14;11.30;99.90
52859;DHT22;38721;53.098;6.596;2022-09-29T18:00:42;11.30;99.90
52859;DHT22;38721;53.098;6.596;2022-09-29T18:03:10;11.30;99.90
52859;DHT22;38721;53.098;6.596;2022-09-29T18:05:41;11.30;99.90
52859;DHT22;38721;53.098;6.596;2022-09-29T18:08:14;11.30;99.90
52859;DHT22;38721;53.098;6.596;2022-09-29T18:10:41;11.30;99.90
52859;DHT22;38721;53.098;6.596;2022-09-29T18:13:10;11.30;99.90
52859;DHT22;38721;53.098;6.596;2022-09-29T18:15:39;11.30;99.90
52859;DHT22;38721;53.098;6.596;2022-09-29T18:18:12;11.20;99.90
52859;DHT22;38721;53.098;6.596;2022-09-29T18:20:43;11.20;99.90
52859;DHT22;38721;53.098;6.596;2022-09-29T18:23:13;11.10;99.90
52859;DHT22;38721;53.098;6.596;2022-09-29T18:25:42;11.10;99.90
52859;DHT22;38721;53.098;6.596;2022-09-29T18:28:11;11.10;99.90
52859;DHT22;38721;53.098;6.596;2022-09-29T18:30:37;11.00;99.90
52859;DHT22;38721;53.098;6.596;2022-09-29T18:33:11;11.00;99.90
52859;DHT22;38721;53.098;6.596;2022-09-29T18:35:38;10.90;99.90
52859;DHT22;38721;53.098;6.596;2022-09-29T18:38:11;10.90;99.90
52859;DHT22;38721;53.098;6.596;2022-09-29T18:40:38;10.90;99.90
52859;DHT22;38721;53.098;6.596;2022-09-29T18:43:04;10.90;99.90
52859;DHT22;38721;53.098;6.596;2022-09-29T18:45:33;10.90;99.90
52859;DHT22;38721;53.098;6.596;2022-09-29T18:48:02;10.90;99.90
52859;DHT22;38721;53.098;6.596;2022-09-29T18:50:31;10.90;99.90
52859;DHT22;38721;53.098;6.596;2022-09-29T18:52:57;10.80;99.90
52859;DHT22;38721;53.098;6.596;2022-09-29T18:55:26;10.80;99.90
52859;DHT22;38721;53.098;6.596;2022-09-29T18:57:53;10.70;99.90
52859;DHT22;38721;53.098;6.596;2022-09-29T19:00:21;10.70;99.90
52859;DHT22;38721;53.098;6.596;2022-09-29T19:02:48;10.70;99.90
52859;DHT22;38721;53.098;6.596;2022-09-29T19:05:18;10.60;99.90
52859;DHT22;38721;53.098;6.596;2022-09-29T19:07:51;10.60;99.90
52859;DHT22;38721;53.098;6.596;2022-09-29T19:10:17;10.50;99.90